sensor_id;sensor_type;location;lat;lon;timestamp;P1;durP1;ratioP1;P2;durP2;ratioP2
32365;SDS011;18837;46.832;16.838;2022-07-10T00:01:54;0.50;;;0.50;;
32365;SDS011;18837;46.832;16.838;2022-07-10T00:04:20;0.50;;;0.50;;
32365;SDS011;18837;46.832;16.838;2022-07-10T00:06:46;0.50;;;0.40;;
32365;SDS011;18837;46.832;16.838;2022-07-10T00:09:15;0.70;;;0.53;;
32365;SDS011;18837;46.832;16.838;2022-07-10T00:11:41;0.50;;;0.50;;
32365;SDS011;18837;46.832;16.838;2022-07-10T00:14:07;0.60;;;0.60;;
32365;SDS011;18837;46.832;16.838;2022-07-10T00:16:33;1.97;;;0.47;;
32365;SDS011;18837;46.832;16.838;2022-07-10T00:19:00;0.43;;;0.40;;
32365;SDS011;18837;46.832;16.838;2022-07-10T00:21:25;0.30;;;0.30;;
32365;SDS011;18837;46.832;16.838;2022-07-10T00:23:51;0.97;;;0.40;;
32365;SDS011;18837;46.832;16.838;2022-07-10T00:26:17;0.73;;;0.57;;
32365;SDS011;18837;46.832;16.838;2022-07-10T00:28:43;0.40;;;0.40;;
32365;SDS011;18837;46.832;16.838;2022-07-10T00:31:09;0.47;;;0.47;;
32365;SDS011;18837;46.832;16.838;2022-07-10T00:33:35;0.40;;;0.40;;
32365;SDS011;18837;46.832;16.838;2022-07-10T00:36:02;0.70;;;0.50;;
32365;SDS011;18837;46.832;16.838;2022-07-10T00:38:31;0.40;;;0.40;;
32365;SDS011;18837;46.832;16.838;2022-07-10T00:40:57;0.63;;;0.57;;
32365;SDS011;18837;46.832;16.838;2022-07-10T00:43:23;1.77;;;0.70;;
32365;SDS011;18837;46.832;16.838;2022-07-10T00:45:49;0.50;;;0.50;;
32365;SDS011;18837;46.832;16.838;2022-07-10T00:48:15;0.67;;;0.60;;
32365;SDS011;18837;46.832;16.838;2022-07-10T00:50:41;0.53;;;0.50;;
32365;SDS011;18837;46.832;16.838;2022-07-10T00:53:09;0.67;;;0.60;;
32365;SDS011;18837;46.832;16.838;2022-07-10T00:55:36;1.40;;;0.40;;
32365;SDS011;18837;46.832;16.838;2022-07-10T00:58:03;0.73;;;0.43;;
32365;SDS011;18837;46.832;16.838;2022-07-10T01:00:32;0.53;;;0.40;;
32365;SDS011;18837;46.832;16.838;2022-07-10T01:03:00;0.47;;;0.40;;
32365;SDS011;18837;46.832;16.838;2022-07-10T01:05:25;0.87;;;0.50;;
32365;SDS011;18837;46.832;16.838;2022-07-10T01:07:51;0.50;;;0.50;;
32365;SDS011;18837;46.832;16.838;2022-07-10T01:10:17;0.60;;;0.60;;
32365;SDS011;18837;46.832;16.838;2022-07-10T01:12:43;0.33;;;0.33;;
32365;SDS011;18837;46.832;16.838;2022-07-10T01:15:12;0.57;;;0.57;;
32365;SDS011;18837;46.832;16.838;2022-07-10T01:17:38;0.60;;;0.60;;
32365;SDS011;18837;46.832;16.838;2022-07-10T01:20:08;0.50;;;0.50;;
32365;SDS011;18837;46.832;16.838;2022-07-10T01:22:35;0.53;;;0.50;;
32365;SDS011;18837;46.832;16.838;2022-07-10T01:25:02;0.50;;;0.50;;
32365;SDS011;18837;46.832;16.838;2022-07-10T01:27:28;2.13;;;0.50;;
32365;SDS011;18837;46.832;16.838;2022-07-10T01:29:54;0.50;;;0.50;;
32365;SDS011;18837;46.832;16.838;2022-07-10T01:32:19;0.50;;;0.50;;
32365;SDS011;18837;46.832;16.838;2022-07-10T01:34:45;0.60;;;0.53;;
32365;SDS011;18837;46.832;16.838;2022-07-10T01:37:12;0.50;;;0.50;;
32365;SDS011;18837;46.832;16.838;2022-07-10T01:39:38;0.60;;;0.50;;
32365;SDS011;18837;46.832;16.838;2022-07-10T01:42:03;0.70;;;0.70;;
32365;SDS011;18837;46.832;16.838;2022-07-10T01:44:29;0.53;;;0.40;;
32365;SDS011;18837;46.832;16.838;2022-07-10T01:46:55;0.40;;;0.40;;
32365;SDS011;18837;46.832;16.838;2022-07-10T01:49:21;0.40;;;0.40;;
32365;SDS011;18837;46.832;16.838;2022-07-10T01:51:46;0.60;;;0.50;;
32365;SDS011;18837;46.832;16.838;2022-07-10T01:54:12;0.67;;;0.67;;
32365;SDS011;18837;46.832;16.838;2022-07-10T01:56:38;1.50;;;0.60;;
32365;SDS011;18837;46.832;16.838;2022-07-10T01:59:04;0.50;;;0.50;;
32365;SDS011;18837;46.832;16.838;2022-07-10T02:01:30;0.47;;;0.47;;
32365;SDS011;18837;46.832;16.838;2022-07-10T02:03:56;0.40;;;0.40;;
32365;SDS011;18837;46.832;16.838;2022-07-10T02:06:41;0.50;;;0.50;;
32365;SDS011;18837;46.832;16.838;2022-07-10T02:09:06;0.53;;;0.50;;
32365;SDS011;18837;46.832;16.838;2022-07-10T02:11:32;0.70;;;0.50;;
32365;SDS011;18837;46.832;16.838;2022-07-10T02:13:57;0.50;;;0.50;;
32365;SDS011;18837;46.832;16.838;2022-07-10T02:16:23;0.50;;;0.40;;
32365;SDS011;18837;46.832;16.838;2022-07-10T02:18:49;0.40;;;0.40;;
32365;SDS011;18837;46.832;16.838;2022-07-10T02:21:15;0.40;;;0.40;;
32365;SDS011;18837;46.832;16.838;2022-07-10T02:23:40;0.43;;;0.43;;
32365;SDS011;18837;46.832;16.838;2022-07-10T02:26:07;0.40;;;0.40;;
32365;SDS011;18837;46.832;16.838;2022-07-10T02:28:32;0.70;;;0.60;;
32365;SDS011;18837;46.832;16.838;2022-07-10T02:30:58;0.80;;;0.60;;
32365;SDS011;18837;46.832;16.838;2022-07-10T02:33:24;1.07;;;0.50;;
32365;SDS011;18837;46.832;16.838;2022-07-10T02:35:50;0.50;;;0.50;;
32365;SDS011;18837;46.832;16.838;2022-07-10T02:38:16;0.60;;;0.50;;
32365;SDS011;18837;46.832;16.838;2022-07-10T02:40:42;0.70;;;0.40;;
32365;SDS011;18837;46.832;16.838;2022-07-10T02:43:07;0.50;;;0.50;;
32365;SDS011;18837;46.832;16.838;2022-07-10T02:45:33;0.70;;;0.50;;
32365;SDS011;18837;46.832;16.838;2022-07-10T02:47:59;0.60;;;0.60;;
32365;SDS011;18837;46.832;16.838;2022-07-10T02:50:25;0.80;;;0.50;;
32365;SDS011;18837;46.832;16.838;2022-07-10T02:52:51;0.53;;;0.50;;
32365;SDS011;18837;46.832;16.838;2022-07-10T02:55:17;1.03;;;0.77;;
32365;SDS011;18837;46.832;16.838;2022-07-10T02:57:43;0.60;;;0.50;;
32365;SDS011;18837;46.832;16.838;2022-07-10T03:00:08;0.80;;;0.60;;
32365;SDS011;18837;46.832;16.838;2022-07-10T03:02:35;0.60;;;0.60;;
32365;SDS011;18837;46.832;16.838;2022-07-10T03:05:00;0.60;;;0.40;;
32365;SDS011;18837;46.832;16.838;2022-07-10T03:07:26;1.37;;;0.63;;
32365;SDS011;18837;46.832;16.838;2022-07-10T03:09:52;0.40;;;0.40;;
32365;SDS011;18837;46.832;16.838;2022-07-10T03:12:18;0.50;;;0.50;;
32365;SDS011;18837;46.832;16.838;2022-07-10T03:14:44;0.57;;;0.50;;
32365;SDS011;18837;46.832;16.838;2022-07-10T03:17:09;0.40;;;0.40;;
32365;SDS011;18837;46.832;16.838;2022-07-10T03:19:35;0.53;;;0.53;;
32365;SDS011;18837;46.832;16.838;2022-07-10T03:22:01;0.70;;;0.57;;
32365;SDS011;18837;46.832;16.838;2022-07-10T03:24:27;0.90;;;0.60;;
32365;SDS011;18837;46.832;16.838;2022-07-10T03:26:53;0.80;;;0.50;;
32365;SDS011;18837;46.832;16.838;2022-07-10T03:29:19;0.60;;;0.60;;
32365;SDS011;18837;46.832;16.838;2022-07-10T03:31:44;1.13;;;0.50;;
32365;SDS011;18837;46.832;16.838;2022-07-10T03:34:10;0.83;;;0.53;;
32365;SDS011;18837;46.832;16.838;2022-07-10T03:36:36;0.43;;;0.43;;
32365;SDS011;18837;46.832;16.838;2022-07-10T03:39:02;0.60;;;0.50;;
32365;SDS011;18837;46.832;16.838;2022-07-10T03:41:28;0.40;;;0.40;;
32365;SDS011;18837;46.832;16.838;2022-07-10T03:43:53;2.43;;;0.70;;
32365;SDS011;18837;46.832;16.838;2022-07-10T03:46:19;0.50;;;0.50;;
32365;SDS011;18837;46.832;16.838;2022-07-10T03:48:45;0.50;;;0.40;;
32365;SDS011;18837;46.832;16.838;2022-07-10T03:51:11;0.50;;;0.50;;
32365;SDS011;18837;46.832;16.838;2022-07-10T03:53:37;0.50;;;0.50;;
32365;SDS011;18837;46.832;16.838;2022-07-10T03:56:03;0.70;;;0.60;;
32365;SDS011;18837;46.832;16.838;2022-07-10T03:58:29;0.50;;;0.50;;
32365;SDS011;18837;46.832;16.838;2022-07-10T04:00:55;1.00;;;0.60;;
32365;SDS011;18837;46.832;16.838;2022-07-10T04:03:21;0.57;;;0.57;;
32365;SDS011;18837;46.832;16.838;2022-07-10T04:05:47;0.53;;;0.53;;
32365;SDS011;18837;46.832;16.838;2022-07-10T04:08:12;0.47;;;0.47;;
32365;SDS011;18837;46.832;16.838;2022-07-10T04:10:38;0.40;;;0.40;;
32365;SDS011;18837;46.832;16.838;2022-07-10T04:13:04;0.37;;;0.37;;
32365;SDS011;18837;46.832;16.838;2022-07-10T04:15:30;0.57;;;0.50;;
32365;SDS011;18837;46.832;16.838;2022-07-10T04:17:56;0.60;;;0.60;;
32365;SDS011;18837;46.832;16.838;2022-07-10T04:20:22;1.13;;;0.60;;
32365;SDS011;18837;46.832;16.838;2022-07-10T04:22:49;0.60;;;0.60;;
32365;SDS011;18837;46.832;16.838;2022-07-10T04:25:15;0.93;;;0.60;;
32365;SDS011;18837;46.832;16.838;2022-07-10T04:27:42;0.90;;;0.60;;
32365;SDS011;18837;46.832;16.838;2022-07-10T04:30:08;1.00;;;0.60;;
32365;SDS011;18837;46.832;16.838;2022-07-10T04:32:34;0.43;;;0.43;;
32365;SDS011;18837;46.832;16.838;2022-07-10T04:34:59;0.50;;;0.50;;
32365;SDS011;18837;46.832;16.838;2022-07-10T04:37:28;0.73;;;0.60;;
32365;SDS011;18837;46.832;16.838;2022-07-10T04:39:54;0.70;;;0.70;;
32365;SDS011;18837;46.832;16.838;2022-07-10T04:42:20;0.90;;;0.73;;
32365;SDS011;18837;46.832;16.838;2022-07-10T04:44:46;0.93;;;0.50;;
32365;SDS011;18837;46.832;16.838;2022-07-10T04:47:11;0.60;;;0.60;;
32365;SDS011;18837;46.832;16.838;2022-07-10T04:49:37;2.10;;;0.77;;
32365;SDS011;18837;46.832;16.838;2022-07-10T04:52:03;0.50;;;0.50;;
32365;SDS011;18837;46.832;16.838;2022-07-10T04:54:29;0.93;;;0.70;;
32365;SDS011;18837;46.832;16.838;2022-07-10T04:56:55;0.50;;;0.50;;
32365;SDS011;18837;46.832;16.838;2022-07-10T04:59:21;0.50;;;0.50;;
32365;SDS011;18837;46.832;16.838;2022-07-10T05:01:47;1.50;;;0.80;;
32365;SDS011;18837;46.832;16.838;2022-07-10T05:04:12;0.73;;;0.60;;
32365;SDS011;18837;46.832;16.838;2022-07-10T05:06:38;0.83;;;0.70;;
32365;SDS011;18837;46.832;16.838;2022-07-10T05:09:04;0.70;;;0.60;;
32365;SDS011;18837;46.832;16.838;2022-07-10T05:11:30;0.60;;;0.60;;
32365;SDS011;18837;46.832;16.838;2022-07-10T05:13:56;0.90;;;0.60;;
32365;SDS011;18837;46.832;16.838;2022-07-10T05:16:22;0.77;;;0.70;;
32365;SDS011;18837;46.832;16.838;2022-07-10T05:18:48;0.90;;;0.60;;
32365;SDS011;18837;46.832;16.838;2022-07-10T05:21:14;0.80;;;0.80;;
32365;SDS011;18837;46.832;16.838;2022-07-10T05:23:39;0.70;;;0.70;;
32365;SDS011;18837;46.832;16.838;2022-07-10T05:26:05;0.70;;;0.70;;
32365;SDS011;18837;46.832;16.838;2022-07-10T05:28:31;0.90;;;0.70;;
32365;SDS011;18837;46.832;16.838;2022-07-10T05:30:57;0.70;;;0.70;;
32365;SDS011;18837;46.832;16.838;2022-07-10T05:33:23;0.70;;;0.67;;
32365;SDS011;18837;46.832;16.838;2022-07-10T05:35:53;0.90;;;0.67;;
32365;SDS011;18837;46.832;16.838;2022-07-10T05:38:19;1.10;;;0.80;;
32365;SDS011;18837;46.832;16.838;2022-07-10T05:40:45;0.73;;;0.67;;
32365;SDS011;18837;46.832;16.838;2022-07-10T05:43:11;0.70;;;0.70;;
32365;SDS011;18837;46.832;16.838;2022-07-10T05:45:37;0.70;;;0.70;;
32365;SDS011;18837;46.832;16.838;2022-07-10T05:48:03;1.80;;;0.60;;
32365;SDS011;18837;46.832;16.838;2022-07-10T05:50:29;0.97;;;0.80;;
32365;SDS011;18837;46.832;16.838;2022-07-10T05:52:55;0.83;;;0.80;;
32365;SDS011;18837;46.832;16.838;2022-07-10T05:55:21;1.10;;;0.60;;
32365;SDS011;18837;46.832;16.838;2022-07-10T05:57:47;0.80;;;0.73;;
32365;SDS011;18837;46.832;16.838;2022-07-10T06:00:13;0.80;;;0.80;;
32365;SDS011;18837;46.832;16.838;2022-07-10T06:02:39;1.20;;;0.80;;
32365;SDS011;18837;46.832;16.838;2022-07-10T06:05:05;0.70;;;0.70;;
32365;SDS011;18837;46.832;16.838;2022-07-10T06:07:32;1.10;;;1.00;;
32365;SDS011;18837;46.832;16.838;2022-07-10T06:09:58;1.80;;;0.80;;
32365;SDS011;18837;46.832;16.838;2022-07-10T06:12:23;0.97;;;0.90;;
32365;SDS011;18837;46.832;16.838;2022-07-10T06:14:49;0.90;;;0.80;;
32365;SDS011;18837;46.832;16.838;2022-07-10T06:17:15;1.43;;;1.00;;
32365;SDS011;18837;46.832;16.838;2022-07-10T06:19:41;1.00;;;0.90;;
32365;SDS011;18837;46.832;16.838;2022-07-10T06:22:07;0.97;;;0.70;;
32365;SDS011;18837;46.832;16.838;2022-07-10T06:24:51;1.20;;;1.00;;
32365;SDS011;18837;46.832;16.838;2022-07-10T06:27:17;1.07;;;0.97;;
32365;SDS011;18837;46.832;16.838;2022-07-10T06:29:42;0.70;;;0.70;;
32365;SDS011;18837;46.832;16.838;2022-07-10T06:32:08;1.17;;;0.90;;
32365;SDS011;18837;46.832;16.838;2022-07-10T06:34:34;0.70;;;0.70;;
32365;SDS011;18837;46.832;16.838;2022-07-10T06:37:00;1.10;;;0.90;;
32365;SDS011;18837;46.832;16.838;2022-07-10T06:39:26;0.80;;;0.80;;
32365;SDS011;18837;46.832;16.838;2022-07-10T06:41:54;1.77;;;0.80;;
32365;SDS011;18837;46.832;16.838;2022-07-10T06:44:20;1.10;;;0.80;;
32365;SDS011;18837;46.832;16.838;2022-07-10T06:46:46;0.97;;;0.97;;
32365;SDS011;18837;46.832;16.838;2022-07-10T06:49:32;1.20;;;1.03;;
32365;SDS011;18837;46.832;16.838;2022-07-10T06:51:58;2.17;;;1.07;;
32365;SDS011;18837;46.832;16.838;2022-07-10T06:54:24;2.93;;;1.27;;
32365;SDS011;18837;46.832;16.838;2022-07-10T06:56:50;1.00;;;1.00;;
32365;SDS011;18837;46.832;16.838;2022-07-10T06:59:16;1.13;;;1.03;;
32365;SDS011;18837;46.832;16.838;2022-07-10T07:01:41;1.00;;;0.80;;
32365;SDS011;18837;46.832;16.838;2022-07-10T07:04:07;1.10;;;0.90;;
32365;SDS011;18837;46.832;16.838;2022-07-10T07:06:33;1.23;;;1.00;;
32365;SDS011;18837;46.832;16.838;2022-07-10T07:08:59;0.90;;;0.90;;
32365;SDS011;18837;46.832;16.838;2022-07-10T07:11:24;1.33;;;0.97;;
32365;SDS011;18837;46.832;16.838;2022-07-10T07:13:52;1.10;;;0.93;;
32365;SDS011;18837;46.832;16.838;2022-07-10T07:16:18;1.30;;;1.00;;
32365;SDS011;18837;46.832;16.838;2022-07-10T07:18:45;0.90;;;0.90;;
32365;SDS011;18837;46.832;16.838;2022-07-10T07:21:17;1.10;;;1.00;;
32365;SDS011;18837;46.832;16.838;2022-07-10T07:24:03;0.93;;;0.90;;
32365;SDS011;18837;46.832;16.838;2022-07-10T07:26:30;1.23;;;1.17;;
32365;SDS011;18837;46.832;16.838;2022-07-10T07:28:56;1.47;;;1.10;;
32365;SDS011;18837;46.832;16.838;2022-07-10T07:31:21;1.33;;;1.13;;
32365;SDS011;18837;46.832;16.838;2022-07-10T07:33:47;1.50;;;1.40;;
32365;SDS011;18837;46.832;16.838;2022-07-10T07:36:13;1.20;;;1.10;;
32365;SDS011;18837;46.832;16.838;2022-07-10T07:38:39;1.57;;;1.20;;
32365;SDS011;18837;46.832;16.838;2022-07-10T07:41:04;1.67;;;1.57;;
32365;SDS011;18837;46.832;16.838;2022-07-10T07:43:30;1.20;;;1.10;;
32365;SDS011;18837;46.832;16.838;2022-07-10T07:45:56;2.27;;;1.37;;
32365;SDS011;18837;46.832;16.838;2022-07-10T07:48:22;1.47;;;1.27;;
32365;SDS011;18837;46.832;16.838;2022-07-10T07:50:48;1.67;;;1.30;;
32365;SDS011;18837;46.832;16.838;2022-07-10T07:53:13;1.20;;;1.10;;
32365;SDS011;18837;46.832;16.838;2022-07-10T07:55:39;1.40;;;1.30;;
32365;SDS011;18837;46.832;16.838;2022-07-10T07:58:05;1.10;;;1.10;;
32365;SDS011;18837;46.832;16.838;2022-07-10T08:00:31;1.20;;;1.20;;
32365;SDS011;18837;46.832;16.838;2022-07-10T08:02:57;1.37;;;1.20;;
32365;SDS011;18837;46.832;16.838;2022-07-10T08:05:23;1.17;;;1.03;;
32365;SDS011;18837;46.832;16.838;2022-07-10T08:07:53;1.40;;;1.10;;
32365;SDS011;18837;46.832;16.838;2022-07-10T08:10:21;1.10;;;1.00;;
32365;SDS011;18837;46.832;16.838;2022-07-10T08:12:48;2.53;;;1.20;;
32365;SDS011;18837;46.832;16.838;2022-07-10T08:15:16;1.60;;;1.20;;
32365;SDS011;18837;46.832;16.838;2022-07-10T08:17:46;1.30;;;1.20;;
32365;SDS011;18837;46.832;16.838;2022-07-10T08:20:12;1.20;;;1.10;;
32365;SDS011;18837;46.832;16.838;2022-07-10T08:22:39;0.90;;;0.90;;
32365;SDS011;18837;46.832;16.838;2022-07-10T08:25:06;1.50;;;1.40;;
32365;SDS011;18837;46.832;16.838;2022-07-10T08:27:33;1.50;;;1.00;;
32365;SDS011;18837;46.832;16.838;2022-07-10T08:29:59;1.30;;;1.20;;
32365;SDS011;18837;46.832;16.838;2022-07-10T08:32:25;1.23;;;1.13;;
32365;SDS011;18837;46.832;16.838;2022-07-10T08:34:52;2.50;;;1.20;;
32365;SDS011;18837;46.832;16.838;2022-07-10T08:37:18;1.07;;;1.00;;
32365;SDS011;18837;46.832;16.838;2022-07-10T08:39:44;1.20;;;1.10;;
32365;SDS011;18837;46.832;16.838;2022-07-10T08:42:11;1.87;;;1.20;;
32365;SDS011;18837;46.832;16.838;2022-07-10T08:44:37;1.07;;;1.07;;
32365;SDS011;18837;46.832;16.838;2022-07-10T08:47:03;1.20;;;1.10;;
32365;SDS011;18837;46.832;16.838;2022-07-10T08:49:29;1.30;;;1.10;;
32365;SDS011;18837;46.832;16.838;2022-07-10T08:51:57;1.50;;;1.30;;
32365;SDS011;18837;46.832;16.838;2022-07-10T08:54:27;1.10;;;1.00;;
32365;SDS011;18837;46.832;16.838;2022-07-10T08:56:56;1.30;;;0.90;;
32365;SDS011;18837;46.832;16.838;2022-07-10T08:59:23;1.20;;;1.10;;
32365;SDS011;18837;46.832;16.838;2022-07-10T09:01:49;1.20;;;1.10;;
32365;SDS011;18837;46.832;16.838;2022-07-10T09:04:18;0.97;;;0.97;;
32365;SDS011;18837;46.832;16.838;2022-07-10T09:06:48;1.13;;;1.00;;
32365;SDS011;18837;46.832;16.838;2022-07-10T09:09:15;1.23;;;1.13;;
32365;SDS011;18837;46.832;16.838;2022-07-10T09:11:41;1.00;;;0.90;;
32365;SDS011;18837;46.832;16.838;2022-07-10T09:14:08;1.47;;;1.10;;
32365;SDS011;18837;46.832;16.838;2022-07-10T09:16:45;1.10;;;1.07;;
32365;SDS011;18837;46.832;16.838;2022-07-10T09:21:50;1.10;;;1.00;;
32365;SDS011;18837;46.832;16.838;2022-07-10T09:24:20;1.00;;;1.00;;
32365;SDS011;18837;46.832;16.838;2022-07-10T09:29:23;1.20;;;1.10;;
32365;SDS011;18837;46.832;16.838;2022-07-10T09:37:27;1.30;;;1.20;;
32365;SDS011;18837;46.832;16.838;2022-07-10T09:39:56;2.90;;;1.10;;
32365;SDS011;18837;46.832;16.838;2022-07-10T09:42:35;4.17;;;1.10;;
32365;SDS011;18837;46.832;16.838;2022-07-10T09:48:00;1.10;;;1.00;;
32365;SDS011;18837;46.832;16.838;2022-07-10T09:53:02;1.97;;;1.23;;
32365;SDS011;18837;46.832;16.838;2022-07-10T09:55:35;1.03;;;1.00;;
32365;SDS011;18837;46.832;16.838;2022-07-10T09:58:02;2.60;;;1.30;;
32365;SDS011;18837;46.832;16.838;2022-07-10T10:00:29;1.97;;;1.23;;
32365;SDS011;18837;46.832;16.838;2022-07-10T10:03:00;1.20;;;1.10;;
32365;SDS011;18837;46.832;16.838;2022-07-10T10:08:05;1.33;;;1.10;;
32365;SDS011;18837;46.832;16.838;2022-07-10T10:10:37;1.80;;;1.40;;
32365;SDS011;18837;46.832;16.838;2022-07-10T10:13:07;1.30;;;1.13;;
32365;SDS011;18837;46.832;16.838;2022-07-10T10:15:35;1.40;;;1.30;;
32365;SDS011;18837;46.832;16.838;2022-07-10T10:18:02;2.50;;;1.20;;
32365;SDS011;18837;46.832;16.838;2022-07-10T10:20:28;1.23;;;1.13;;
32365;SDS011;18837;46.832;16.838;2022-07-10T10:23:03;1.30;;;1.17;;
32365;SDS011;18837;46.832;16.838;2022-07-10T10:25:32;1.93;;;1.27;;
32365;SDS011;18837;46.832;16.838;2022-07-10T10:27:59;1.20;;;1.10;;
32365;SDS011;18837;46.832;16.838;2022-07-10T10:30:27;1.40;;;1.20;;
32365;SDS011;18837;46.832;16.838;2022-07-10T10:32:54;1.00;;;0.90;;
32365;SDS011;18837;46.832;16.838;2022-07-10T10:38:15;1.33;;;1.10;;
32365;SDS011;18837;46.832;16.838;2022-07-10T10:40:41;1.43;;;1.23;;
32365;SDS011;18837;46.832;16.838;2022-07-10T10:45:43;1.10;;;1.00;;
32365;SDS011;18837;46.832;16.838;2022-07-10T10:48:10;1.20;;;1.10;;
32365;SDS011;18837;46.832;16.838;2022-07-10T10:50:41;1.17;;;1.07;;
32365;SDS011;18837;46.832;16.838;2022-07-10T10:56:20;1.47;;;1.33;;
32365;SDS011;18837;46.832;16.838;2022-07-10T10:58:44;1.23;;;1.00;;
32365;SDS011;18837;46.832;16.838;2022-07-10T11:01:26;1.90;;;1.30;;
32365;SDS011;18837;46.832;16.838;2022-07-10T11:06:42;1.33;;;1.23;;
32365;SDS011;18837;46.832;16.838;2022-07-10T11:09:28;1.00;;;1.00;;
32365;SDS011;18837;46.832;16.838;2022-07-10T11:12:02;2.33;;;1.50;;
32365;SDS011;18837;46.832;16.838;2022-07-10T11:14:30;2.47;;;1.30;;
32365;SDS011;18837;46.832;16.838;2022-07-10T11:16:58;1.57;;;1.23;;
32365;SDS011;18837;46.832;16.838;2022-07-10T11:19:25;1.23;;;1.07;;
32365;SDS011;18837;46.832;16.838;2022-07-10T11:25:01;1.43;;;1.20;;
32365;SDS011;18837;46.832;16.838;2022-07-10T11:30:46;1.17;;;1.07;;
32365;SDS011;18837;46.832;16.838;2022-07-10T11:33:13;2.63;;;1.03;;
32365;SDS011;18837;46.832;16.838;2022-07-10T11:35:39;1.20;;;1.10;;
32365;SDS011;18837;46.832;16.838;2022-07-10T11:38:05;1.57;;;1.20;;
32365;SDS011;18837;46.832;16.838;2022-07-10T11:40:35;1.27;;;1.10;;
32365;SDS011;18837;46.832;16.838;2022-07-10T11:43:02;1.30;;;1.20;;
32365;SDS011;18837;46.832;16.838;2022-07-10T11:45:34;1.53;;;1.30;;
32365;SDS011;18837;46.832;16.838;2022-07-10T11:48:04;1.77;;;1.17;;
32365;SDS011;18837;46.832;16.838;2022-07-10T11:50:36;1.47;;;1.20;;
32365;SDS011;18837;46.832;16.838;2022-07-10T11:53:03;1.30;;;1.20;;
32365;SDS011;18837;46.832;16.838;2022-07-10T11:55:29;3.67;;;1.40;;
32365;SDS011;18837;46.832;16.838;2022-07-10T11:58:11;1.33;;;1.20;;
32365;SDS011;18837;46.832;16.838;2022-07-10T12:00:44;1.50;;;1.13;;
32365;SDS011;18837;46.832;16.838;2022-07-10T12:03:27;1.20;;;1.10;;
32365;SDS011;18837;46.832;16.838;2022-07-10T12:05:52;1.27;;;1.10;;
32365;SDS011;18837;46.832;16.838;2022-07-10T12:08:18;1.83;;;1.23;;
32365;SDS011;18837;46.832;16.838;2022-07-10T12:10:44;1.23;;;1.10;;
32365;SDS011;18837;46.832;16.838;2022-07-10T12:13:11;1.30;;;1.20;;
32365;SDS011;18837;46.832;16.838;2022-07-10T12:15:42;1.40;;;1.10;;
32365;SDS011;18837;46.832;16.838;2022-07-10T12:18:17;1.10;;;1.00;;
32365;SDS011;18837;46.832;16.838;2022-07-10T12:20:46;1.17;;;1.00;;
32365;SDS011;18837;46.832;16.838;2022-07-10T12:23:16;1.10;;;1.00;;
32365;SDS011;18837;46.832;16.838;2022-07-10T12:25:43;0.90;;;0.80;;
32365;SDS011;18837;46.832;16.838;2022-07-10T12:28:14;1.30;;;0.90;;
32365;SDS011;18837;46.832;16.838;2022-07-10T12:30:44;1.07;;;0.97;;
32365;SDS011;18837;46.832;16.838;2022-07-10T12:33:11;1.20;;;1.10;;
32365;SDS011;18837;46.832;16.838;2022-07-10T12:38:19;2.80;;;1.20;;
32365;SDS011;18837;46.832;16.838;2022-07-10T12:41:07;1.10;;;1.10;;
32365;SDS011;18837;46.832;16.838;2022-07-10T12:43:34;1.27;;;1.17;;
32365;SDS011;18837;46.832;16.838;2022-07-10T12:46:10;1.17;;;1.00;;
32365;SDS011;18837;46.832;16.838;2022-07-10T12:48:37;1.50;;;1.13;;
32365;SDS011;18837;46.832;16.838;2022-07-10T12:53:53;1.23;;;1.10;;
32365;SDS011;18837;46.832;16.838;2022-07-10T12:56:26;1.00;;;1.00;;
32365;SDS011;18837;46.832;16.838;2022-07-10T12:59:01;1.07;;;1.00;;
32365;SDS011;18837;46.832;16.838;2022-07-10T13:01:29;0.93;;;0.93;;
32365;SDS011;18837;46.832;16.838;2022-07-10T13:04:08;1.20;;;1.10;;
32365;SDS011;18837;46.832;16.838;2022-07-10T13:06:34;2.20;;;1.23;;
32365;SDS011;18837;46.832;16.838;2022-07-10T13:09:01;2.57;;;1.20;;
32365;SDS011;18837;46.832;16.838;2022-07-10T13:11:28;1.47;;;1.37;;
32365;SDS011;18837;46.832;16.838;2022-07-10T13:13:53;1.40;;;1.00;;
32365;SDS011;18837;46.832;16.838;2022-07-10T13:16:21;1.27;;;1.10;;
32365;SDS011;18837;46.832;16.838;2022-07-10T13:18:47;1.17;;;0.90;;
32365;SDS011;18837;46.832;16.838;2022-07-10T13:21:13;0.70;;;0.70;;
32365;SDS011;18837;46.832;16.838;2022-07-10T13:23:39;1.27;;;0.97;;
32365;SDS011;18837;46.832;16.838;2022-07-10T13:26:05;1.00;;;0.90;;
32365;SDS011;18837;46.832;16.838;2022-07-10T13:28:32;1.13;;;1.03;;
32365;SDS011;18837;46.832;16.838;2022-07-10T13:30:59;1.03;;;0.90;;
32365;SDS011;18837;46.832;16.838;2022-07-10T13:33:25;1.47;;;1.20;;
32365;SDS011;18837;46.832;16.838;2022-07-10T13:35:52;1.30;;;1.10;;
32365;SDS011;18837;46.832;16.838;2022-07-10T13:38:19;1.03;;;0.93;;
32365;SDS011;18837;46.832;16.838;2022-07-10T13:40:45;1.00;;;1.00;;
32365;SDS011;18837;46.832;16.838;2022-07-10T13:43:12;1.17;;;1.07;;
32365;SDS011;18837;46.832;16.838;2022-07-10T13:45:41;1.53;;;1.10;;
32365;SDS011;18837;46.832;16.838;2022-07-10T13:48:10;1.17;;;1.03;;
32365;SDS011;18837;46.832;16.838;2022-07-10T13:50:41;1.53;;;1.10;;
32365;SDS011;18837;46.832;16.838;2022-07-10T13:53:07;1.17;;;1.07;;
32365;SDS011;18837;46.832;16.838;2022-07-10T13:55:34;0.80;;;0.80;;
32365;SDS011;18837;46.832;16.838;2022-07-10T13:58:01;0.80;;;0.80;;
32365;SDS011;18837;46.832;16.838;2022-07-10T14:00:27;1.20;;;1.10;;
32365;SDS011;18837;46.832;16.838;2022-07-10T14:02:53;1.17;;;0.97;;
32365;SDS011;18837;46.832;16.838;2022-07-10T14:05:21;0.83;;;0.83;;
32365;SDS011;18837;46.832;16.838;2022-07-10T14:07:47;1.07;;;1.00;;
32365;SDS011;18837;46.832;16.838;2022-07-10T14:10:14;1.17;;;1.07;;
32365;SDS011;18837;46.832;16.838;2022-07-10T14:12:40;1.00;;;0.80;;
32365;SDS011;18837;46.832;16.838;2022-07-10T14:15:06;0.97;;;0.90;;
32365;SDS011;18837;46.832;16.838;2022-07-10T14:17:33;1.20;;;1.10;;
32365;SDS011;18837;46.832;16.838;2022-07-10T14:19:59;1.10;;;1.10;;
32365;SDS011;18837;46.832;16.838;2022-07-10T14:22:25;1.90;;;1.10;;
32365;SDS011;18837;46.832;16.838;2022-07-10T14:24:50;1.20;;;0.90;;
32365;SDS011;18837;46.832;16.838;2022-07-10T14:27:17;1.30;;;0.90;;
32365;SDS011;18837;46.832;16.838;2022-07-10T14:29:43;1.47;;;0.93;;
32365;SDS011;18837;46.832;16.838;2022-07-10T14:32:08;1.13;;;0.93;;
32365;SDS011;18837;46.832;16.838;2022-07-10T14:34:34;2.40;;;1.00;;
32365;SDS011;18837;46.832;16.838;2022-07-10T14:37:00;3.07;;;0.93;;
32365;SDS011;18837;46.832;16.838;2022-07-10T14:39:27;3.07;;;1.00;;
32365;SDS011;18837;46.832;16.838;2022-07-10T14:41:52;4.73;;;0.97;;
32365;SDS011;18837;46.832;16.838;2022-07-10T14:44:18;3.90;;;0.73;;
32365;SDS011;18837;46.832;16.838;2022-07-10T14:46:44;2.37;;;0.90;;
32365;SDS011;18837;46.832;16.838;2022-07-10T14:49:10;1.60;;;0.80;;
32365;SDS011;18837;46.832;16.838;2022-07-10T14:51:36;4.17;;;1.10;;
32365;SDS011;18837;46.832;16.838;2022-07-10T14:54:02;2.23;;;0.97;;
32365;SDS011;18837;46.832;16.838;2022-07-10T14:56:28;1.77;;;0.90;;
32365;SDS011;18837;46.832;16.838;2022-07-10T14:58:54;1.83;;;1.00;;
32365;SDS011;18837;46.832;16.838;2022-07-10T15:01:19;3.90;;;1.00;;
32365;SDS011;18837;46.832;16.838;2022-07-10T15:03:46;1.77;;;0.80;;
32365;SDS011;18837;46.832;16.838;2022-07-10T15:06:12;1.63;;;1.10;;
32365;SDS011;18837;46.832;16.838;2022-07-10T15:08:37;1.53;;;0.77;;
32365;SDS011;18837;46.832;16.838;2022-07-10T15:11:03;1.17;;;1.00;;
32365;SDS011;18837;46.832;16.838;2022-07-10T15:13:30;1.23;;;0.90;;
32365;SDS011;18837;46.832;16.838;2022-07-10T15:15:56;1.77;;;1.10;;